sensor_id;sensor_type;location;lat;lon;timestamp;P1;durP1;ratioP1;P2;durP2;ratioP2
22191;SDS011;11261;52.456;10.850;2023-05-20T00:00:18;3.10;;;1.00;;
22191;SDS011;11261;52.456;10.850;2023-05-20T00:02:46;2.15;;;1.08;;
22191;SDS011;11261;52.456;10.850;2023-05-20T00:05:14;2.85;;;1.30;;
22191;SDS011;11261;52.456;10.850;2023-05-20T00:07:43;1.30;;;0.95;;
22191;SDS011;11261;52.456;10.850;2023-05-20T00:10:11;2.60;;;1.17;;
22191;SDS011;11261;52.456;10.850;2023-05-20T00:12:40;1.98;;;1.15;;
22191;SDS011;11261;52.456;10.850;2023-05-20T00:15:08;4.43;;;1.30;;
22191;SDS011;11261;52.456;10.850;2023-05-20T00:17:38;5.70;;;1.42;;
22191;SDS011;11261;52.456;10.850;2023-05-20T00:20:07;2.10;;;1.30;;
22191;SDS011;11261;52.456;10.850;2023-05-20T00:22:35;1.63;;;1.30;;
22191;SDS011;11261;52.456;10.850;2023-05-20T00:25:04;2.45;;;1.30;;
22191;SDS011;11261;52.456;10.850;2023-05-20T00:27:32;1.17;;;0.90;;
22191;SDS011;11261;52.456;10.850;2023-05-20T00:30:02;1.63;;;1.13;;
22191;SDS011;11261;52.456;10.850;2023-05-20T00:32:31;2.42;;;1.10;;
22191;SDS011;11261;52.456;10.850;2023-05-20T00:35:00;2.63;;;1.08;;
22191;SDS011;11261;52.456;10.850;2023-05-20T00:37:29;3.20;;;1.20;;
22191;SDS011;11261;52.456;10.850;2023-05-20T00:39:57;1.33;;;1.00;;
22191;SDS011;11261;52.456;10.850;2023-05-20T00:42:26;3.55;;;1.42;;
22191;SDS011;11261;52.456;10.850;2023-05-20T00:44:55;6.18;;;1.05;;
22191;SDS011;11261;52.456;10.850;2023-05-20T00:47:25;2.00;;;1.10;;
22191;SDS011;11261;52.456;10.850;2023-05-20T00:49:56;2.15;;;1.20;;
22191;SDS011;11261;52.456;10.850;2023-05-20T00:52:25;2.00;;;1.02;;
22191;SDS011;11261;52.456;10.850;2023-05-20T00:54:56;1.33;;;1.00;;
22191;SDS011;11261;52.456;10.850;2023-05-20T00:57:24;2.83;;;1.48;;
22191;SDS011;11261;52.456;10.850;2023-05-20T00:59:53;1.38;;;1.20;;
22191;SDS011;11261;52.456;10.850;2023-05-20T01:02:22;3.33;;;1.17;;
22191;SDS011;11261;52.456;10.850;2023-05-20T01:04:52;3.45;;;1.30;;
22191;SDS011;11261;52.456;10.850;2023-05-20T01:07:22;3.70;;;1.10;;
22191;SDS011;11261;52.456;10.850;2023-05-20T01:09:51;1.55;;;1.10;;
22191;SDS011;11261;52.456;10.850;2023-05-20T01:12:22;1.83;;;0.95;;
22191;SDS011;11261;52.456;10.850;2023-05-20T01:14:55;2.85;;;1.40;;
22191;SDS011;11261;52.456;10.850;2023-05-20T01:17:28;1.33;;;1.10;;
22191;SDS011;11261;52.456;10.850;2023-05-20T01:19:59;2.30;;;1.27;;
22191;SDS011;11261;52.456;10.850;2023-05-20T01:22:30;2.33;;;1.15;;
22191;SDS011;11261;52.456;10.850;2023-05-20T01:24:59;1.20;;;0.95;;
22191;SDS011;11261;52.456;10.850;2023-05-20T01:27:28;1.73;;;1.10;;
22191;SDS011;11261;52.456;10.850;2023-05-20T01:29:57;1.77;;;1.00;;
22191;SDS011;11261;52.456;10.850;2023-05-20T01:32:31;2.60;;;1.10;;
22191;SDS011;11261;52.456;10.850;2023-05-20T01:35:03;1.63;;;0.90;;
22191;SDS011;11261;52.456;10.850;2023-05-20T01:37:35;2.65;;;0.90;;
22191;SDS011;11261;52.456;10.850;2023-05-20T01:40:07;2.40;;;1.15;;
22191;SDS011;11261;52.456;10.850;2023-05-20T01:42:37;1.85;;;1.10;;
22191;SDS011;11261;52.456;10.850;2023-05-20T01:45:06;2.70;;;1.23;;
22191;SDS011;11261;52.456;10.850;2023-05-20T01:47:35;2.75;;;1.13;;
22191;SDS011;11261;52.456;10.850;2023-05-20T01:50:04;2.05;;;1.15;;
22191;SDS011;11261;52.456;10.850;2023-05-20T01:52:35;3.28;;;1.00;;
22191;SDS011;11261;52.456;10.850;2023-05-20T01:55:03;1.95;;;1.10;;
22191;SDS011;11261;52.456;10.850;2023-05-20T01:57:32;2.35;;;1.20;;
22191;SDS011;11261;52.456;10.850;2023-05-20T02:00:00;2.42;;;1.20;;
22191;SDS011;11261;52.456;10.850;2023-05-20T02:02:29;2.10;;;1.05;;
22191;SDS011;11261;52.456;10.850;2023-05-20T02:04:57;1.70;;;1.00;;
22191;SDS011;11261;52.456;10.850;2023-05-20T02:07:25;2.00;;;1.10;;
22191;SDS011;11261;52.456;10.850;2023-05-20T02:09:55;2.05;;;1.00;;
22191;SDS011;11261;52.456;10.850;2023-05-20T02:12:23;2.88;;;1.00;;
22191;SDS011;11261;52.456;10.850;2023-05-20T02:14:52;3.17;;;1.20;;
22191;SDS011;11261;52.456;10.850;2023-05-20T02:17:20;3.20;;;1.10;;
22191;SDS011;11261;52.456;10.850;2023-05-20T02:19:48;2.72;;;1.00;;
22191;SDS011;11261;52.456;10.850;2023-05-20T02:22:17;1.73;;;1.10;;
22191;SDS011;11261;52.456;10.850;2023-05-20T02:24:45;1.35;;;1.17;;
22191;SDS011;11261;52.456;10.850;2023-05-20T02:27:14;1.08;;;1.00;;
22191;SDS011;11261;52.456;10.850;2023-05-20T02:29:43;2.17;;;1.02;;
22191;SDS011;11261;52.456;10.850;2023-05-20T02:32:11;1.90;;;1.08;;
22191;SDS011;11261;52.456;10.850;2023-05-20T02:34:39;3.30;;;1.10;;
22191;SDS011;11261;52.456;10.850;2023-05-20T02:37:07;1.17;;;1.08;;
22191;SDS011;11261;52.456;10.850;2023-05-20T02:39:35;1.38;;;1.02;;
22191;SDS011;11261;52.456;10.850;2023-05-20T02:42:04;4.47;;;1.20;;
22191;SDS011;11261;52.456;10.850;2023-05-20T02:44:33;1.65;;;1.10;;
22191;SDS011;11261;52.456;10.850;2023-05-20T02:47:02;2.20;;;1.23;;
22191;SDS011;11261;52.456;10.850;2023-05-20T02:49:31;1.13;;;0.90;;
22191;SDS011;11261;52.456;10.850;2023-05-20T02:51:59;1.73;;;1.20;;
22191;SDS011;11261;52.456;10.850;2023-05-20T02:54:27;1.83;;;1.02;;
22191;SDS011;11261;52.456;10.850;2023-05-20T02:56:56;1.92;;;1.38;;
22191;SDS011;11261;52.456;10.850;2023-05-20T02:59:24;4.05;;;1.30;;
22191;SDS011;11261;52.456;10.850;2023-05-20T03:01:53;3.42;;;1.23;;
22191;SDS011;11261;52.456;10.850;2023-05-20T03:04:22;1.92;;;1.13;;
22191;SDS011;11261;52.456;10.850;2023-05-20T03:06:51;1.95;;;1.20;;
22191;SDS011;11261;52.456;10.850;2023-05-20T03:09:23;1.40;;;0.95;;
22191;SDS011;11261;52.456;10.850;2023-05-20T03:11:51;1.20;;;1.10;;
22191;SDS011;11261;52.456;10.850;2023-05-20T03:14:20;2.17;;;1.10;;
22191;SDS011;11261;52.456;10.850;2023-05-20T03:16:48;1.92;;;1.00;;
22191;SDS011;11261;52.456;10.850;2023-05-20T03:19:17;3.20;;;1.20;;
22191;SDS011;11261;52.456;10.850;2023-05-20T03:21:46;3.85;;;1.20;;
22191;SDS011;11261;52.456;10.850;2023-05-20T03:24:14;1.52;;;1.27;;
22191;SDS011;11261;52.456;10.850;2023-05-20T03:26:43;2.15;;;1.23;;
22191;SDS011;11261;52.456;10.850;2023-05-20T03:29:12;2.35;;;1.38;;
22191;SDS011;11261;52.456;10.850;2023-05-20T03:31:40;1.30;;;1.05;;
22191;SDS011;11261;52.456;10.850;2023-05-20T03:34:09;2.95;;;1.60;;
22191;SDS011;11261;52.456;10.850;2023-05-20T03:36:39;1.80;;;1.20;;
22191;SDS011;11261;52.456;10.850;2023-05-20T03:39:07;1.85;;;1.55;;
22191;SDS011;11261;52.456;10.850;2023-05-20T03:41:35;1.63;;;1.20;;
22191;SDS011;11261;52.456;10.850;2023-05-20T03:44:04;2.42;;;1.50;;
22191;SDS011;11261;52.456;10.850;2023-05-20T03:46:32;2.05;;;1.52;;
22191;SDS011;11261;52.456;10.850;2023-05-20T03:49:00;1.88;;;1.42;;
22191;SDS011;11261;52.456;10.850;2023-05-20T03:51:29;2.28;;;1.10;;
22191;SDS011;11261;52.456;10.850;2023-05-20T03:53:58;4.13;;;1.35;;
22191;SDS011;11261;52.456;10.850;2023-05-20T03:56:27;2.25;;;1.20;;
22191;SDS011;11261;52.456;10.850;2023-05-20T03:58:55;1.92;;;1.20;;
22191;SDS011;11261;52.456;10.850;2023-05-20T04:01:23;1.95;;;1.30;;
22191;SDS011;11261;52.456;10.850;2023-05-20T04:03:52;3.50;;;1.38;;
22191;SDS011;11261;52.456;10.850;2023-05-20T04:06:20;1.75;;;1.20;;
22191;SDS011;11261;52.456;10.850;2023-05-20T04:08:48;1.70;;;1.20;;
22191;SDS011;11261;52.456;10.850;2023-05-20T04:11:19;4.13;;;1.40;;
22191;SDS011;11261;52.456;10.850;2023-05-20T04:13:47;2.85;;;1.40;;
22191;SDS011;11261;52.456;10.850;2023-05-20T04:16:16;1.80;;;1.30;;
22191;SDS011;11261;52.456;10.850;2023-05-20T04:18:45;2.15;;;1.13;;
22191;SDS011;11261;52.456;10.850;2023-05-20T04:21:13;2.20;;;1.55;;
22191;SDS011;11261;52.456;10.850;2023-05-20T04:23:42;2.05;;;1.15;;
22191;SDS011;11261;52.456;10.850;2023-05-20T04:26:10;1.48;;;1.15;;
22191;SDS011;11261;52.456;10.850;2023-05-20T04:28:39;1.17;;;0.95;;
22191;SDS011;11261;52.456;10.850;2023-05-20T04:31:08;1.45;;;1.17;;
22191;SDS011;11261;52.456;10.850;2023-05-20T04:33:37;2.35;;;1.40;;
22191;SDS011;11261;52.456;10.850;2023-05-20T04:36:05;4.40;;;1.10;;
22191;SDS011;11261;52.456;10.850;2023-05-20T04:38:37;4.10;;;1.23;;
22191;SDS011;11261;52.456;10.850;2023-05-20T04:41:05;3.03;;;1.30;;
22191;SDS011;11261;52.456;10.850;2023-05-20T04:43:34;2.33;;;1.35;;
22191;SDS011;11261;52.456;10.850;2023-05-20T04:46:06;3.30;;;1.55;;
22191;SDS011;11261;52.456;10.850;2023-05-20T04:48:35;2.33;;;1.27;;
22191;SDS011;11261;52.456;10.850;2023-05-20T04:51:03;2.08;;;1.30;;
22191;SDS011;11261;52.456;10.850;2023-05-20T04:53:32;2.40;;;1.60;;
22191;SDS011;11261;52.456;10.850;2023-05-20T04:56:01;2.50;;;1.33;;
22191;SDS011;11261;52.456;10.850;2023-05-20T04:58:29;1.85;;;1.48;;
22191;SDS011;11261;52.456;10.850;2023-05-20T05:00:58;2.72;;;1.60;;
22191;SDS011;11261;52.456;10.850;2023-05-20T05:03:29;2.25;;;1.65;;
22191;SDS011;11261;52.456;10.850;2023-05-20T05:05:57;3.20;;;1.50;;
22191;SDS011;11261;52.456;10.850;2023-05-20T05:08:25;5.85;;;1.83;;
22191;SDS011;11261;52.456;10.850;2023-05-20T05:10:54;2.40;;;1.50;;
22191;SDS011;11261;52.456;10.850;2023-05-20T05:13:22;2.10;;;1.17;;
22191;SDS011;11261;52.456;10.850;2023-05-20T05:15:56;2.67;;;1.70;;
22191;SDS011;11261;52.456;10.850;2023-05-20T05:18:25;4.13;;;2.17;;
22191;SDS011;11261;52.456;10.850;2023-05-20T05:20:59;3.53;;;1.77;;
22191;SDS011;11261;52.456;10.850;2023-05-20T05:23:28;3.72;;;1.90;;
22191;SDS011;11261;52.456;10.850;2023-05-20T05:25:56;2.67;;;1.40;;
22191;SDS011;11261;52.456;10.850;2023-05-20T05:28:24;3.72;;;1.60;;
22191;SDS011;11261;52.456;10.850;2023-05-20T05:30:52;2.70;;;1.88;;
22191;SDS011;11261;52.456;10.850;2023-05-20T05:33:21;2.08;;;1.67;;
22191;SDS011;11261;52.456;10.850;2023-05-20T05:35:50;3.38;;;2.28;;
22191;SDS011;11261;52.456;10.850;2023-05-20T05:38:19;2.67;;;1.83;;
22191;SDS011;11261;52.456;10.850;2023-05-20T05:40:47;3.10;;;1.90;;
22191;SDS011;11261;52.456;10.850;2023-05-20T05:43:16;4.72;;;2.50;;
22191;SDS011;11261;52.456;10.850;2023-05-20T05:45:44;7.40;;;2.53;;
22191;SDS011;11261;52.456;10.850;2023-05-20T05:48:12;3.35;;;2.22;;
22191;SDS011;11261;52.456;10.850;2023-05-20T05:50:42;3.40;;;2.28;;
22191;SDS011;11261;52.456;10.850;2023-05-20T05:53:11;5.47;;;2.17;;
22191;SDS011;11261;52.456;10.850;2023-05-20T05:55:59;3.25;;;2.05;;
22191;SDS011;11261;52.456;10.850;2023-05-20T05:58:28;3.20;;;2.30;;
22191;SDS011;11261;52.456;10.850;2023-05-20T06:00:56;3.92;;;2.58;;
22191;SDS011;11261;52.456;10.850;2023-05-20T06:03:24;7.85;;;2.67;;
22191;SDS011;11261;52.456;10.850;2023-05-20T06:05:52;4.93;;;2.10;;
22191;SDS011;11261;52.456;10.850;2023-05-20T06:08:21;3.78;;;2.38;;
22191;SDS011;11261;52.456;10.850;2023-05-20T06:10:49;5.32;;;2.40;;
22191;SDS011;11261;52.456;10.850;2023-05-20T06:13:19;4.47;;;2.40;;
22191;SDS011;11261;52.456;10.850;2023-05-20T06:15:48;4.00;;;2.60;;
22191;SDS011;11261;52.456;10.850;2023-05-20T06:18:16;3.53;;;2.72;;
22191;SDS011;11261;52.456;10.850;2023-05-20T06:20:45;6.68;;;2.85;;
22191;SDS011;11261;52.456;10.850;2023-05-20T06:23:13;5.95;;;3.38;;
22191;SDS011;11261;52.456;10.850;2023-05-20T06:25:41;3.80;;;2.90;;
22191;SDS011;11261;52.456;10.850;2023-05-20T06:28:10;4.25;;;3.13;;
22191;SDS011;11261;52.456;10.850;2023-05-20T06:30:39;8.07;;;3.20;;
22191;SDS011;11261;52.456;10.850;2023-05-20T06:33:08;5.50;;;3.40;;
22191;SDS011;11261;52.456;10.850;2023-05-20T06:35:36;6.05;;;3.40;;
22191;SDS011;11261;52.456;10.850;2023-05-20T06:38:05;7.07;;;3.10;;
22191;SDS011;11261;52.456;10.850;2023-05-20T06:40:33;6.93;;;2.90;;
22191;SDS011;11261;52.456;10.850;2023-05-20T06:43:02;6.60;;;3.60;;
22191;SDS011;11261;52.456;10.850;2023-05-20T06:45:30;6.75;;;3.50;;
22191;SDS011;11261;52.456;10.850;2023-05-20T06:48:00;5.13;;;2.92;;
22191;SDS011;11261;52.456;10.850;2023-05-20T06:50:28;6.13;;;3.80;;
22191;SDS011;11261;52.456;10.850;2023-05-20T06:52:57;4.95;;;2.85;;
22191;SDS011;11261;52.456;10.850;2023-05-20T06:55:25;5.75;;;2.95;;
22191;SDS011;11261;52.456;10.850;2023-05-20T06:57:53;4.72;;;3.15;;
22191;SDS011;11261;52.456;10.850;2023-05-20T07:00:22;5.18;;;3.10;;
22191;SDS011;11261;52.456;10.850;2023-05-20T07:02:50;6.15;;;2.72;;
22191;SDS011;11261;52.456;10.850;2023-05-20T07:05:20;3.53;;;2.13;;
22191;SDS011;11261;52.456;10.850;2023-05-20T07:07:50;2.90;;;2.17;;
22191;SDS011;11261;52.456;10.850;2023-05-20T07:10:18;5.20;;;2.97;;
22191;SDS011;11261;52.456;10.850;2023-05-20T07:12:46;3.47;;;2.28;;
22191;SDS011;11261;52.456;10.850;2023-05-20T07:15:14;4.13;;;2.40;;
22191;SDS011;11261;52.456;10.850;2023-05-20T07:17:43;3.35;;;2.28;;
22191;SDS011;11261;52.456;10.850;2023-05-20T07:20:11;4.82;;;2.47;;
22191;SDS011;11261;52.456;10.850;2023-05-20T07:22:41;2.30;;;1.88;;
22191;SDS011;11261;52.456;10.850;2023-05-20T07:25:09;6.82;;;2.10;;
22191;SDS011;11261;52.456;10.850;2023-05-20T07:27:38;3.85;;;2.05;;
22191;SDS011;11261;52.456;10.850;2023-05-20T07:30:06;3.40;;;2.50;;
22191;SDS011;11261;52.456;10.850;2023-05-20T07:32:35;3.00;;;1.83;;
22191;SDS011;11261;52.456;10.850;2023-05-20T07:35:03;4.20;;;2.33;;
22191;SDS011;11261;52.456;10.850;2023-05-20T07:37:32;3.25;;;2.30;;
22191;SDS011;11261;52.456;10.850;2023-05-20T07:40:02;2.72;;;2.30;;
22191;SDS011;11261;52.456;10.850;2023-05-20T07:42:32;4.45;;;2.85;;
22191;SDS011;11261;52.456;10.850;2023-05-20T07:45:00;4.70;;;2.67;;
22191;SDS011;11261;52.456;10.850;2023-05-20T07:47:29;5.15;;;2.85;;
22191;SDS011;11261;52.456;10.850;2023-05-20T07:49:58;2.78;;;2.38;;
22191;SDS011;11261;52.456;10.850;2023-05-20T07:52:26;4.63;;;2.45;;
22191;SDS011;11261;52.456;10.850;2023-05-20T07:54:58;3.67;;;2.63;;
22191;SDS011;11261;52.456;10.850;2023-05-20T07:57:28;3.58;;;2.60;;
22191;SDS011;11261;52.456;10.850;2023-05-20T07:59:57;2.80;;;1.67;;
22191;SDS011;11261;52.456;10.850;2023-05-20T08:02:25;2.67;;;1.92;;
22191;SDS011;11261;52.456;10.850;2023-05-20T08:04:53;1.95;;;1.55;;
22191;SDS011;11261;52.456;10.850;2023-05-20T08:07:21;4.68;;;2.55;;
22191;SDS011;11261;52.456;10.850;2023-05-20T08:09:50;3.13;;;2.22;;
22191;SDS011;11261;52.456;10.850;2023-05-20T08:12:18;4.72;;;2.20;;
22191;SDS011;11261;52.456;10.850;2023-05-20T08:14:47;3.47;;;2.50;;
22191;SDS011;11261;52.456;10.850;2023-05-20T08:17:16;6.03;;;2.47;;
22191;SDS011;11261;52.456;10.850;2023-05-20T08:19:44;4.85;;;2.20;;
22191;SDS011;11261;52.456;10.850;2023-05-20T08:22:12;3.97;;;2.42;;
22191;SDS011;11261;52.456;10.850;2023-05-20T08:24:41;4.97;;;2.75;;
22191;SDS011;11261;52.456;10.850;2023-05-20T08:27:09;3.47;;;2.30;;
22191;SDS011;11261;52.456;10.850;2023-05-20T08:29:37;3.38;;;1.95;;
22191;SDS011;11261;52.456;10.850;2023-05-20T08:32:07;3.40;;;2.20;;
22191;SDS011;11261;52.456;10.850;2023-05-20T08:34:35;4.65;;;2.28;;
22191;SDS011;11261;52.456;10.850;2023-05-20T08:37:03;3.55;;;2.20;;
22191;SDS011;11261;52.456;10.850;2023-05-20T08:39:32;4.68;;;3.00;;
22191;SDS011;11261;52.456;10.850;2023-05-20T08:42:00;4.55;;;2.30;;
22191;SDS011;11261;52.456;10.850;2023-05-20T08:44:32;4.03;;;2.75;;
22191;SDS011;11261;52.456;10.850;2023-05-20T08:47:01;4.60;;;2.50;;
22191;SDS011;11261;52.456;10.850;2023-05-20T08:49:33;3.88;;;2.50;;
22191;SDS011;11261;52.456;10.850;2023-05-20T08:52:01;6.38;;;2.33;;
22191;SDS011;11261;52.456;10.850;2023-05-20T08:54:32;4.65;;;2.63;;
22191;SDS011;11261;52.456;10.850;2023-05-20T08:57:10;5.60;;;2.83;;
22191;SDS011;11261;52.456;10.850;2023-05-20T08:59:40;5.40;;;3.05;;
22191;SDS011;11261;52.456;10.850;2023-05-20T09:02:10;3.70;;;2.45;;
22191;SDS011;11261;52.456;10.850;2023-05-20T09:04:40;4.90;;;2.75;;
22191;SDS011;11261;52.456;10.850;2023-05-20T09:07:08;6.30;;;3.00;;
22191;SDS011;11261;52.456;10.850;2023-05-20T09:09:36;5.32;;;3.10;;
22191;SDS011;11261;52.456;10.850;2023-05-20T09:12:05;6.03;;;3.20;;
22191;SDS011;11261;52.456;10.850;2023-05-20T09:14:34;6.38;;;3.28;;
22191;SDS011;11261;52.456;10.850;2023-05-20T09:17:04;7.00;;;4.22;;
22191;SDS011;11261;52.456;10.850;2023-05-20T09:19:33;3.85;;;2.75;;
22191;SDS011;11261;52.456;10.850;2023-05-20T09:22:03;5.50;;;2.95;;
22191;SDS011;11261;52.456;10.850;2023-05-20T09:24:32;3.50;;;2.63;;
22191;SDS011;11261;52.456;10.850;2023-05-20T09:27:01;5.55;;;3.38;;
22191;SDS011;11261;52.456;10.850;2023-05-20T09:29:31;6.70;;;2.90;;
22191;SDS011;11261;52.456;10.850;2023-05-20T09:32:00;4.45;;;2.83;;
22191;SDS011;11261;52.456;10.850;2023-05-20T09:34:29;4.70;;;3.00;;
22191;SDS011;11261;52.456;10.850;2023-05-20T09:36:58;4.68;;;2.88;;
22191;SDS011;11261;52.456;10.850;2023-05-20T09:39:28;3.92;;;1.65;;
22191;SDS011;11261;52.456;10.850;2023-05-20T09:42:01;4.70;;;3.60;;
22191;SDS011;11261;52.456;10.850;2023-05-20T09:44:35;6.80;;;3.33;;
22191;SDS011;11261;52.456;10.850;2023-05-20T09:47:05;4.07;;;2.28;;
22191;SDS011;11261;52.456;10.850;2023-05-20T09:49:34;5.53;;;2.38;;
22191;SDS011;11261;52.456;10.850;2023-05-20T09:52:05;5.18;;;2.95;;
22191;SDS011;11261;52.456;10.850;2023-05-20T09:54:37;5.63;;;3.17;;
22191;SDS011;11261;52.456;10.850;2023-05-20T09:57:05;3.33;;;2.70;;
22191;SDS011;11261;52.456;10.850;2023-05-20T09:59:34;4.25;;;2.80;;
22191;SDS011;11261;52.456;10.850;2023-05-20T10:02:04;4.28;;;2.88;;
22191;SDS011;11261;52.456;10.850;2023-05-20T10:04:33;3.08;;;2.30;;
22191;SDS011;11261;52.456;10.850;2023-05-20T10:07:17;3.42;;;2.85;;
22191;SDS011;11261;52.456;10.850;2023-05-20T10:10:12;3.58;;;2.42;;
22191;SDS011;11261;52.456;10.850;2023-05-20T10:12:48;3.83;;;3.15;;
22191;SDS011;11261;52.456;10.850;2023-05-20T10:15:32;4.18;;;3.38;;
22191;SDS011;11261;52.456;10.850;2023-05-20T10:18:10;4.65;;;2.90;;
22191;SDS011;11261;52.456;10.850;2023-05-20T10:20:49;5.07;;;2.50;;
22191;SDS011;11261;52.456;10.850;2023-05-20T10:23:21;3.47;;;2.55;;
22191;SDS011;11261;52.456;10.850;2023-05-20T10:25:51;5.10;;;2.50;;
22191;SDS011;11261;52.456;10.850;2023-05-20T10:28:27;3.80;;;2.55;;
22191;SDS011;11261;52.456;10.850;2023-05-20T10:30:57;4.50;;;2.92;;
22191;SDS011;11261;52.456;10.850;2023-05-20T10:33:26;4.47;;;2.53;;
22191;SDS011;11261;52.456;10.850;2023-05-20T10:35:57;5.00;;;3.00;;
22191;SDS011;11261;52.456;10.850;2023-05-20T10:38:26;3.25;;;2.30;;
22191;SDS011;11261;52.456;10.850;2023-05-20T10:40:56;4.35;;;2.38;;
22191;SDS011;11261;52.456;10.850;2023-05-20T10:43:36;4.70;;;2.70;;
22191;SDS011;11261;52.456;10.850;2023-05-20T10:46:04;3.67;;;2.70;;
22191;SDS011;11261;52.456;10.850;2023-05-20T10:48:47;4.85;;;2.38;;
22191;SDS011;11261;52.456;10.850;2023-05-20T10:51:15;6.95;;;3.03;;
22191;SDS011;11261;52.456;10.850;2023-05-20T10:53:44;5.13;;;2.70;;
22191;SDS011;11261;52.456;10.850;2023-05-20T10:56:18;5.95;;;2.30;;
22191;SDS011;11261;52.456;10.850;2023-05-20T10:58:48;4.25;;;2.33;;
22191;SDS011;11261;52.456;10.850;2023-05-20T11:01:17;6.43;;;2.78;;
22191;SDS011;11261;52.456;10.850;2023-05-20T11:03:46;5.07;;;2.90;;
22191;SDS011;11261;52.456;10.850;2023-05-20T11:06:17;5.40;;;2.63;;
22191;SDS011;11261;52.456;10.850;2023-05-20T11:08:45;3.53;;;2.45;;
22191;SDS011;11261;52.456;10.850;2023-05-20T11:11:13;4.93;;;2.90;;
22191;SDS011;11261;52.456;10.850;2023-05-20T11:13:44;4.57;;;2.50;;
22191;SDS011;11261;52.456;10.850;2023-05-20T11:16:16;5.00;;;3.10;;
22191;SDS011;11261;52.456;10.850;2023-05-20T11:18:47;3.85;;;2.75;;
22191;SDS011;11261;52.456;10.850;2023-05-20T11:21:16;4.80;;;2.65;;
22191;SDS011;11261;52.456;10.850;2023-05-20T11:23:45;4.97;;;2.60;;
22191;SDS011;11261;52.456;10.850;2023-05-20T11:26:14;3.88;;;2.78;;
22191;SDS011;11261;52.456;10.850;2023-05-20T11:28:43;3.78;;;2.70;;
22191;SDS011;11261;52.456;10.850;2023-05-20T11:31:12;4.63;;;2.33;;
22191;SDS011;11261;52.456;10.850;2023-05-20T11:33:42;4.90;;;2.33;;
22191;SDS011;11261;52.456;10.850;2023-05-20T11:36:10;4.30;;;2.72;;
22191;SDS011;11261;52.456;10.850;2023-05-20T11:38:52;3.97;;;2.60;;
22191;SDS011;11261;52.456;10.850;2023-05-20T11:41:22;4.13;;;2.28;;
22191;SDS011;11261;52.456;10.850;2023-05-20T11:43:55;2.25;;;1.88;;
22191;SDS011;11261;52.456;10.850;2023-05-20T11:46:24;3.50;;;2.20;;
22191;SDS011;11261;52.456;10.850;2023-05-20T11:48:53;2.85;;;1.85;;
22191;SDS011;11261;52.456;10.850;2023-05-20T11:51:23;6.10;;;2.35;;
22191;SDS011;11261;52.456;10.850;2023-05-20T11:53:52;5.00;;;2.50;;
22191;SDS011;11261;52.456;10.850;2023-05-20T11:56:26;5.55;;;2.45;;
22191;SDS011;11261;52.456;10.850;2023-05-20T11:58:57;4.25;;;2.40;;
22191;SDS011;11261;52.456;10.850;2023-05-20T12:01:28;4.22;;;2.72;;
22191;SDS011;11261;52.456;10.850;2023-05-20T12:03:59;3.83;;;2.33;;
22191;SDS011;11261;52.456;10.850;2023-05-20T12:06:27;3.78;;;2.30;;
22191;SDS011;11261;52.456;10.850;2023-05-20T12:08:56;4.90;;;2.50;;
22191;SDS011;11261;52.456;10.850;2023-05-20T12:11:25;3.03;;;2.05;;
22191;SDS011;11261;52.456;10.850;2023-05-20T12:13:53;4.43;;;2.75;;
22191;SDS011;11261;52.456;10.850;2023-05-20T12:16:22;3.88;;;2.25;;
22191;SDS011;11261;52.456;10.850;2023-05-20T12:18:51;4.07;;;2.97;;
22191;SDS011;11261;52.456;10.850;2023-05-20T12:21:19;5.82;;;3.20;;
22191;SDS011;11261;52.456;10.850;2023-05-20T12:23:47;9.55;;;3.15;;
22191;SDS011;11261;52.456;10.850;2023-05-20T12:26:15;6.10;;;3.50;;
22191;SDS011;11261;52.456;10.850;2023-05-20T12:28:44;6.07;;;2.95;;
22191;SDS011;11261;52.456;10.850;2023-05-20T12:31:12;6.25;;;2.90;;
22191;SDS011;11261;52.456;10.850;2023-05-20T12:33:42;4.05;;;3.20;;
22191;SDS011;11261;52.456;10.850;2023-05-20T12:36:10;3.22;;;2.38;;
22191;SDS011;11261;52.456;10.850;2023-05-20T12:38:39;5.30;;;3.10;;
22191;SDS011;11261;52.456;10.850;2023-05-20T12:41:08;4.55;;;3.03;;
22191;SDS011;11261;52.456;10.850;2023-05-20T12:43:36;4.75;;;2.88;;
22191;SDS011;11261;52.456;10.850;2023-05-20T12:46:04;4.63;;;2.63;;
22191;SDS011;11261;52.456;10.850;2023-05-20T12:48:33;6.22;;;3.30;;
22191;SDS011;11261;52.456;10.850;2023-05-20T12:51:03;7.07;;;3.20;;
22191;SDS011;11261;52.456;10.850;2023-05-20T12:53:32;4.70;;;2.42;;
22191;SDS011;11261;52.456;10.850;2023-05-20T12:56:01;5.30;;;2.80;;
22191;SDS011;11261;52.456;10.850;2023-05-20T12:58:31;4.40;;;3.17;;
22191;SDS011;11261;52.456;10.850;2023-05-20T13:00:59;5.13;;;3.50;;
22191;SDS011;11261;52.456;10.850;2023-05-20T13:03:27;5.32;;;3.70;;
22191;SDS011;11261;52.456;10.850;2023-05-20T13:05:56;5.03;;;3.63;;
22191;SDS011;11261;52.456;10.850;2023-05-20T13:08:26;6.43;;;3.00;;
22191;SDS011;11261;52.456;10.850;2023-05-20T13:10:54;4.55;;;3.38;;
22191;SDS011;11261;52.456;10.850;2023-05-20T13:13:23;6.40;;;3.10;;
22191;SDS011;11261;52.456;10.850;2023-05-20T13:15:51;5.55;;;3.45;;
22191;SDS011;11261;52.456;10.850;2023-05-20T13:18:19;5.40;;;2.80;;
22191;SDS011;11261;52.456;10.850;2023-05-20T13:20:47;4.18;;;2.22;;
22191;SDS011;11261;52.456;10.850;2023-05-20T13:23:16;5.13;;;3.15;;
22191;SDS011;11261;52.456;10.850;2023-05-20T13:25:45;4.88;;;2.72;;
22191;SDS011;11261;52.456;10.850;2023-05-20T13:28:14;4.05;;;2.88;;
22191;SDS011;11261;52.456;10.850;2023-05-20T13:30:44;4.40;;;2.70;;
22191;SDS011;11261;52.456;10.850;2023-05-20T13:33:12;5.30;;;3.13;;
22191;SDS011;11261;52.456;10.850;2023-05-20T13:35:41;4.20;;;2.85;;
22191;SDS011;11261;52.456;10.850;2023-05-20T13:38:09;3.70;;;2.80;;
22191;SDS011;11261;52.456;10.850;2023-05-20T13:40:38;4.25;;;2.38;;
22191;SDS011;11261;52.456;10.850;2023-05-20T13:43:07;4.72;;;2.80;;
22191;SDS011;11261;52.456;10.850;2023-05-20T13:45:35;3.33;;;2.80;;
22191;SDS011;11261;52.456;10.850;2023-05-20T13:48:04;5.55;;;3.03;;
22191;SDS011;11261;52.456;10.850;2023-05-20T13:50:32;3.80;;;2.95;;
22191;SDS011;11261;52.456;10.850;2023-05-20T13:53:02;6.07;;;3.00;;
22191;SDS011;11261;52.456;10.850;2023-05-20T13:55:30;3.65;;;2.53;;
22191;SDS011;11261;52.456;10.850;2023-05-20T13:57:59;3.38;;;2.30;;
22191;SDS011;11261;52.456;10.850;2023-05-20T14:00:28;4.13;;;3.15;;
22191;SDS011;11261;52.456;10.850;2023-05-20T14:02:57;4.20;;;2.20;;
22191;SDS011;11261;52.456;10.850;2023-05-20T14:05:26;5.22;;;3.13;;
22191;SDS011;11261;52.456;10.850;2023-05-20T14:07:54;3.95;;;3.05;;
22191;SDS011;11261;52.456;10.850;2023-05-20T14:10:22;5.13;;;3.08;;
22191;SDS011;11261;52.456;10.850;2023-05-20T14:12:51;5.40;;;2.78;;
22191;SDS011;11261;52.456;10.850;2023-05-20T14:15:19;3.58;;;2.60;;
22191;SDS011;11261;52.456;10.850;2023-05-20T14:17:49;4.40;;;2.35;;
22191;SDS011;11261;52.456;10.850;2023-05-20T14:20:17;3.83;;;2.70;;
22191;SDS011;11261;52.456;10.850;2023-05-20T14:22:46;4.40;;;2.60;;
22191;SDS011;11261;52.456;10.850;2023-05-20T14:25:14;5.70;;;2.83;;
22191;SDS011;11261;52.456;10.850;2023-05-20T14:27:42;4.55;;;2.72;;
22191;SDS011;11261;52.456;10.850;2023-05-20T14:30:11;4.03;;;2.40;;
22191;SDS011;11261;52.456;10.850;2023-05-20T14:32:39;2.70;;;2.00;;
22191;SDS011;11261;52.456;10.850;2023-05-20T14:35:09;4.43;;;2.63;;
22191;SDS011;11261;52.456;10.850;2023-05-20T14:37:37;3.90;;;2.88;;
22191;SDS011;11261;52.456;10.850;2023-05-20T14:40:06;4.03;;;2.65;;
22191;SDS011;11261;52.456;10.850;2023-05-20T14:42:35;5.07;;;2.80;;
22191;SDS011;11261;52.456;10.850;2023-05-20T14:45:04;2.72;;;2.35;;